Time;durP1;ratioP1;P1;durP2;ratioP2;P2;SDS_P1;SDS_P2;PMS_P1;PMS_P2;Temp;Humidity;BMP_temperature;BMP_pressure;BME280_temperature;BME280_humidity;BME280_pressure;Samples;Min_cycle;Max_cycle;Signal;HPM_P1;HPM_P2
2023/01/30 00:00:59;;;;;;;11.80;6.00;;;;;;;-2.69;70.26;99285.16;82020;1298;3012655;-60
2023/01/30 00:03:26;;;;;;;11.90;5.90;;;;;;;-2.60;69.98;99284.39;82027;1296;3011387;-61
2023/01/30 00:05:54;;;;;;;9.00;5.70;;;;;;;-2.54;69.93;99283.30;80778;1299;3052695;-62
2023/01/30 00:08:21;;;;;;;12.20;5.90;;;;;;;-2.48;69.72;99286.66;82045;1296;3018137;-61
2023/01/30 00:10:53;;;;;;;9.70;5.20;;;;;;;-2.55;69.50;99279.70;81492;1296;3011248;-62
2023/01/30 00:13:19;;;;;;;8.40;5.10;;;;;;;-2.75;70.11;99282.65;82017;1295;3012510;-61
2023/01/30 00:15:46;;;;;;;11.80;5.60;;;;;;;-2.77;70.33;99281.80;82010;1295;3011144;-61
2023/01/30 00:18:14;;;;;;;10.20;5.70;;;;;;;-2.73;70.36;99277.65;80742;1296;3026579;-61
2023/01/30 00:20:41;;;;;;;9.80;5.50;;;;;;;-2.68;70.15;99276.23;82040;1297;3018407;-58
2023/01/30 00:23:07;;;;;;;12.50;6.00;;;;;;;-2.67;70.01;99274.51;82003;1297;3011201;-62
2023/01/30 00:25:35;;;;;;;13.00;6.10;;;;;;;-2.64;70.46;99268.48;80764;1295;3026480;-60
2023/01/30 00:28:02;;;;;;;11.20;5.60;;;;;;;-2.63;70.11;99267.79;82055;1295;3018371;-60
2023/01/30 00:30:29;;;;;;;9.80;5.40;;;;;;;-2.65;70.20;99270.20;82006;1296;3011096;-59
2023/01/30 00:32:58;;;;;;;10.00;5.50;;;;;;;-2.72;70.34;99270.45;80677;1296;3053240;-61
2023/01/30 00:35:27;;;;;;;10.10;5.40;;;;;;;-2.67;70.22;99274.00;82027;1295;3019036;-60
2023/01/30 00:37:57;;;;;;;13.30;5.80;;;;;;;-2.70;70.22;99271.11;81956;1297;3011009;-61
2023/01/30 00:40:25;;;;;;;11.00;5.70;;;;;;;-2.65;70.21;99272.08;80803;1295;3069160;-60
2023/01/30 00:48:27;;;;;;;7.90;5.50;;;;;;;-2.77;70.64;99272.89;80700;1295;3049217;-61
2023/01/30 00:50:54;;;;;;;11.00;5.70;;;;;;;-2.78;70.69;99273.23;81938;1296;3012767;-61
2023/01/30 00:53:21;;;;;;;9.80;5.50;;;;;;;-2.77;70.56;99272.20;81973;1298;3011518;-63
2023/01/30 00:55:51;;;;;;;8.90;5.30;;;;;;;-2.61;70.40;99271.70;80661;1297;3026452;-62
2023/01/30 00:58:17;;;;;;;12.20;5.70;;;;;;;-2.52;70.14;99274.02;82001;1296;3011379;-61
2023/01/30 01:00:49;;;;;;;10.50;5.70;;;;;;;-2.52;70.18;99272.65;80762;1295;3050958;-60
2023/01/30 01:03:16;;;;;;;8.90;5.20;;;;;;;-2.38;69.88;99275.41;82033;1295;3013175;-61
2023/01/30 01:05:42;;;;;;;10.40;5.70;;;;;;;-2.32;69.36;99274.48;82004;1295;3011596;-62
2023/01/30 01:08:10;;;;;;;10.20;5.50;;;;;;;-2.49;69.97;99276.05;80720;1295;3050089;-60
2023/01/30 01:10:39;;;;;;;10.30;5.40;;;;;;;-2.37;69.69;99280.03;82011;1296;3011090;-61
2023/01/30 01:13:05;;;;;;;9.30;5.00;;;;;;;-2.22;69.28;99282.45;82018;1295;3011246;-60
2023/01/30 01:15:34;;;;;;;9.20;4.70;;;;;;;-2.29;68.74;99277.20;80734;1295;3049725;-62
2023/01/30 01:18:00;;;;;;;9.10;5.20;;;;;;;-2.19;68.91;99273.99;82038;1296;3017872;-61
2023/01/30 01:20:26;;;;;;;9.10;4.90;;;;;;;-2.09;68.40;99270.95;82006;1294;3011300;-60
2023/01/30 01:22:55;;;;;;;9.90;5.30;;;;;;;-2.09;68.64;99272.49;80755;1295;3025992;-62
2023/01/30 01:25:22;;;;;;;10.90;5.60;;;;;;;-2.22;68.50;99271.29;82023;1297;3012601;-60
2023/01/30 01:27:49;;;;;;;9.50;5.90;;;;;;;-2.12;68.80;99270.13;81979;1297;3011197;-60
2023/01/30 01:30:18;;;;;;;9.50;5.40;;;;;;;-2.02;68.35;99265.73;80767;1295;3050949;-61
2023/01/30 01:32:44;;;;;;;9.80;5.30;;;;;;;-2.06;68.28;99265.95;81953;1295;3018027;-62
2023/01/30 01:35:10;;;;;;;12.40;6.10;;;;;;;-2.14;68.17;99273.77;81997;1294;3011233;-61
2023/01/30 01:37:39;;;;;;;10.30;5.80;;;;;;;-2.19;68.55;99276.73;80657;1294;3049671;-61
2023/01/30 01:42:57;;;;;;;9.40;5.50;;;;;;;-2.08;68.23;99278.15;80767;1294;3068986;-61
2023/01/30 01:45:23;;;;;;;10.70;6.00;;;;;;;-1.99;68.22;99277.55;82051;1294;3012697;-61
2023/01/30 01:48:19;;;;;;;12.90;6.50;;;;;;;-1.97;67.85;99279.73;82021;1296;3011159;-64
2023/01/30 01:50:52;;;;;;;12.80;7.20;;;;;;;-1.90;67.96;99281.38;80661;1295;3053079;-60
2023/01/30 01:53:20;;;;;;;14.50;6.60;;;;;;;-1.82;67.65;99280.74;81982;1294;3011378;-62
2023/01/30 01:55:49;;;;;;;17.10;7.80;;;;;;;-1.99;67.66;99275.48;80673;1297;3051843;-59
2023/01/30 01:58:28;;;;;;;25.60;9.40;;;;;;;-1.82;67.44;99277.48;81955;1297;3011329;-61
2023/01/30 02:00:57;;;;;;;21.00;9.20;;;;;;;-1.86;67.09;99273.59;80727;1294;3049807;-63
2023/01/30 02:03:24;;;;;;;22.70;9.20;;;;;;;-1.86;67.38;99277.19;82069;1294;3013272;-62
2023/01/30 02:05:52;;;;;;;18.00;8.40;;;;;;;-1.77;67.15;99273.98;81935;1294;3011229;-60
2023/01/30 02:08:25;;;;;;;13.80;7.50;;;;;;;-1.78;66.89;99274.34;80653;1294;3048848;-61
2023/01/30 02:10:52;;;;;;;18.70;7.90;;;;;;;-1.63;66.66;99274.14;81914;1295;3011395;-59
2023/01/30 02:13:20;;;;;;;20.50;7.90;;;;;;;-1.67;66.34;99275.40;80791;1295;3052280;-60
2023/01/30 02:15:47;;;;;;;15.60;6.90;;;;;;;-1.60;66.16;99270.30;81961;1297;3012740;-63
2023/01/30 02:18:13;;;;;;;18.70;7.50;;;;;;;-1.44;66.19;99263.22;81871;1296;3011155;-60
2023/01/30 02:20:47;;;;;;;13.40;5.90;;;;;;;-1.42;66.01;99265.06;80645;1296;3048296;-62
2023/01/30 02:23:25;;;;;;;11.10;5.90;;;;;;;-1.32;65.43;99266.48;81928;1296;3011481;-60
2023/01/30 02:26:05;;;;;;;9.70;5.30;;;;;;;-1.18;65.49;99265.05;80652;1296;3050561;-59
2023/01/30 02:29:12;;;;;;;8.40;4.50;;;;;;;-1.25;64.76;99261.55;80551;1300;3052444;-61
2023/01/30 02:31:54;;;;;;;10.20;5.60;;;;;;;-1.15;64.71;99257.95;80660;1295;3052536;-61
2023/01/30 02:34:37;;;;;;;9.50;4.70;;;;;;;-1.11;64.80;99254.63;80657;1296;3070685;-60
2023/01/30 02:37:33;;;;;;;11.20;5.60;;;;;;;-1.03;64.43;99250.54;80541;1298;3051243;-60
2023/01/30 02:40:02;;;;;;;9.20;4.60;;;;;;;-0.86;64.46;99246.28;80685;1296;3056675;-63
2023/01/30 02:42:45;;;;;;;7.80;4.30;;;;;;;-0.88;63.70;99244.27;81913;1296;3012660;-60
2023/01/30 02:45:19;;;;;;;8.40;4.60;;;;;;;-0.90;63.76;99246.00;80689;1296;3049780;-61
2023/01/30 02:48:01;;;;;;;8.40;4.80;;;;;;;-0.92;63.68;99246.91;81856;1295;3011421;-60
2023/01/30 02:50:35;;;;;;;7.80;4.20;;;;;;;-0.85;63.61;99251.95;80661;1297;3052458;-61
2023/01/30 02:53:01;;;;;;;;;;;;;;;-0.84;63.35;99251.58;81944;1297;3011195;-62
2023/01/30 02:55:29;;;;;;;10.00;4.00;;;;;;;-0.81;63.57;99250.84;80572;1297;3050139;-61
2023/01/30 02:57:56;;;;;;;8.10;4.40;;;;;;;-0.80;63.63;99250.64;81920;1296;3012350;-58
2023/01/30 03:00:40;;;;;;;10.00;5.10;;;;;;;-0.84;63.38;99255.19;81935;1296;3011267;-60
2023/01/30 03:03:22;;;;;;;9.50;4.30;;;;;;;-0.86;63.54;99261.08;80482;1295;3049310;-60
2023/01/30 03:06:18;;;;;;;7.80;4.80;;;;;;;-0.98;63.83;99262.13;80563;1303;3053526;-61
2023/01/30 03:09:01;;;;;;;10.00;4.90;;;;;;;-1.12;64.26;99257.55;80689;1297;3051296;-62
2023/01/30 03:11:53;;;;;;;8.50;5.00;;;;;;;-1.24;64.76;99251.21;80676;1296;3068652;-60
2023/01/30 03:14:25;;;;;;;10.30;5.50;;;;;;;-1.43;65.43;99252.55;80643;1296;3051122;-60
2023/01/30 03:16:53;;;;;;;7.80;4.90;;;;;;;-1.43;65.42;99258.90;81849;1295;3011422;-60
2023/01/30 03:19:21;;;;;;;8.80;4.80;;;;;;;-1.54;65.68;99256.66;80679;1294;3049636;-60
2023/01/30 03:21:50;;;;;;;11.80;5.40;;;;;;;-1.78;66.53;99260.61;82020;1295;3011334;-60
2023/01/30 03:24:19;;;;;;;9.70;5.60;;;;;;;-1.84;66.75;99259.64;81437;1295;3011695;-61
2023/01/30 03:26:53;;;;;;;10.90;6.00;;;;;;;-1.85;66.66;99258.45;82059;1296;3013049;-61
2023/01/30 03:29:22;;;;;;;17.20;6.60;;;;;;;-1.98;66.85;99265.48;80647;1295;3070278;-58
2023/01/30 03:31:49;;;;;;;17.60;7.90;;;;;;;-2.01;67.09;99266.05;81970;1295;3013122;-59
2023/01/30 03:34:16;;;;;;;20.90;8.90;;;;;;;-2.06;67.31;99267.14;81989;1294;3011158;-60
2023/01/30 03:36:44;;;;;;;23.00;9.80;;;;;;;-2.05;67.17;99265.59;80687;1294;3026452;-61
2023/01/30 03:39:10;;;;;;;33.10;10.30;;;;;;;-2.27;67.34;99269.97;81918;1297;3012603;-59
2023/01/30 03:41:37;;;;;;;25.10;10.20;;;;;;;-2.27;67.53;99266.70;82012;1295;3011440;-60
2023/01/30 03:44:05;;;;;;;27.80;10.70;;;;;;;-2.25;67.88;99267.54;80652;1294;3026109;-60
2023/01/30 03:46:32;;;;;;;32.60;11.50;;;;;;;-2.42;67.81;99269.80;82024;1295;3012555;-59
2023/01/30 03:48:58;;;;;;;28.90;12.00;;;;;;;-2.51;68.09;99264.91;81977;1294;3011257;-60
2023/01/30 03:51:26;;;;;;;27.50;10.50;;;;;;;-2.64;68.28;99262.82;80720;1295;3051262;-60
2023/01/30 03:53:53;;;;;;;19.10;9.50;;;;;;;-2.65;68.32;99265.91;82006;1297;3013284;-59
2023/01/30 03:56:19;;;;;;;27.60;11.20;;;;;;;-2.89;68.25;99266.50;81944;1297;3011228;-59
2023/01/30 03:58:47;;;;;;;23.60;10.40;;;;;;;-3.12;69.00;99265.83;80665;1295;3026603;-59
2023/01/30 04:01:25;;;;;;;21.80;10.20;;;;;;;-3.28;69.56;99270.93;80680;1297;3052571;-60
2023/01/30 04:03:52;;;;;;;23.40;9.50;;;;;;;-3.49;70.04;99278.79;81944;1295;3013207;-60
2023/01/30 04:06:19;;;;;;;13.80;7.40;;;;;;;-3.46;69.43;99276.70;81914;1295;3011322;-62
2023/01/30 04:08:47;;;;;;;15.80;7.40;;;;;;;-3.54;69.08;99271.28;80724;1295;3026544;-60
2023/01/30 04:11:25;;;;;;;12.20;6.50;;;;;;;-3.85;69.32;99275.91;80725;1296;3051939;-61
2023/01/30 04:13:51;;;;;;;15.60;6.90;;;;;;;-4.00;69.99;99278.02;81959;1296;3012972;-60
2023/01/30 04:16:20;;;;;;;11.80;7.00;;;;;;;-4.17;70.39;99282.55;81912;1297;3011252;-61
2023/01/30 04:19:17;;;;;;;11.70;5.80;;;;;;;-4.19;70.46;99284.44;80410;1295;3055934;-61
2023/01/30 04:21:45;;;;;;;14.30;7.10;;;;;;;-4.24;70.92;99282.05;82005;1294;3012335;-62
2023/01/30 04:24:12;;;;;;;13.00;6.80;;;;;;;-4.38;71.20;99283.98;82026;1294;3011190;-60
2023/01/30 04:26:39;;;;;;;16.50;7.20;;;;;;;-4.40;71.07;99278.35;80662;1300;3051477;-60
2023/01/30 04:29:06;;;;;;;12.20;5.80;;;;;;;-4.35;70.80;99279.02;82042;1294;3018476;-59
2023/01/30 08:16:20;;;;;;;15.70;8.20;;;;;;;-0.93;55.68;99249.50;80060;1304;3013281;-62
2023/01/30 08:18:47;;;;;;;20.40;9.10;;;;;;;-0.74;54.78;99249.00;79103;1303;3019316;-60
2023/01/30 08:21:13;;;;;;;19.70;8.60;;;;;;;-0.63;54.53;99246.39;79010;1304;3011745;-62
2023/01/30 08:23:41;;;;;;;17.70;7.80;;;;;;;-0.44;53.87;99246.02;77746;1304;3028791;-62
2023/01/30 08:26:09;;;;;;;14.60;7.30;;;;;;;-0.25;53.44;99243.25;79120;1304;3013296;-62
2023/01/30 08:28:36;;;;;;;14.70;7.10;;;;;;;-0.22;52.37;99236.64;77847;1304;3011614;-62
2023/01/30 08:31:08;;;;;;;16.10;7.70;;;;;;;-0.08;52.86;99234.47;77954;1302;3048988;-62
2023/01/30 08:33:40;;;;;;;21.10;8.40;;;;;;;0.00;52.54;99228.45;78733;1300;3013798;-64
2023/01/30 08:36:07;;;;;;;24.40;9.30;;;;;;;0.21;53.15;99223.35;79298;1301;3012902;-60
2023/01/30 08:38:33;;;;;;;25.60;9.80;;;;;;;0.41;52.50;99223.76;79224;1301;3011919;-62
2023/01/30 08:41:04;;;;;;;19.40;9.10;;;;;;;0.52;52.71;99222.30;78052;1301;3026148;-63
2023/01/30 08:43:31;;;;;;;18.60;8.10;;;;;;;0.57;51.94;99222.02;79423;1299;3012773;-62
2023/01/30 08:46:00;;;;;;;17.90;7.50;;;;;;;0.61;51.28;99218.82;78831;1301;3011686;-62
2023/01/30 08:48:26;;;;;;;15.60;7.00;;;;;;;0.57;50.32;99212.70;79312;1299;3013517;-62
2023/01/30 08:50:54;;;;;;;13.60;7.40;;;;;;;0.71;51.31;99210.80;79530;1299;3012635;-65
2023/01/30 08:53:22;;;;;;;19.00;7.60;;;;;;;0.90;50.80;99203.97;78244;1301;3026246;-64
2023/01/30 08:55:50;;;;;;;18.10;7.50;;;;;;;1.07;50.19;99204.05;79456;1301;3012835;-67
2023/01/30 08:58:17;;;;;;;13.30;7.20;;;;;;;1.26;49.91;99202.52;79315;1296;3011353;-60
2023/01/30 09:00:45;;;;;;;13.50;7.20;;;;;;;1.35;48.74;99198.83;78007;1295;3049392;-67
2023/01/30 09:03:13;;;;;;;18.10;8.20;;;;;;;1.43;48.58;99193.79;79441;1298;3013378;-61
2023/01/30 09:05:40;;;;;;;18.60;9.00;;;;;;;1.49;48.76;99195.16;79289;1296;3011916;-59
2023/01/30 09:08:08;;;;;;;20.80;8.70;;;;;;;1.67;48.57;99192.23;78206;1301;3050838;-62
2023/01/30 09:10:34;;;;;;;16.40;8.00;;;;;;;1.66;48.75;99186.73;79387;1300;3013224;-60
2023/01/30 09:13:22;;;;;;;16.50;7.20;;;;;;;1.64;48.38;99188.88;78043;1301;3069366;-59
2023/01/30 09:15:48;;;;;;;18.40;7.50;;;;;;;1.59;47.82;99185.05;79256;1296;3013682;-60
2023/01/30 09:18:15;;;;;;;18.50;8.20;;;;;;;1.49;47.85;99186.34;79591;1295;3012338;-64
2023/01/30 09:20:43;;;;;;;15.10;7.00;;;;;;;1.70;48.78;99183.02;78662;1296;3026222;-62
2023/01/30 09:23:09;;;;;;;12.40;6.70;;;;;;;1.74;48.33;99180.81;79404;1299;3012947;-60
2023/01/30 09:25:36;;;;;;;11.40;5.40;;;;;;;1.52;48.29;99176.78;79412;1298;3013198;-61
2023/01/30 09:28:04;;;;;;;11.80;5.50;;;;;;;1.37;48.20;99172.02;78257;1296;3025823;-60
2023/01/30 09:30:31;;;;;;;9.90;5.50;;;;;;;1.39;48.84;99169.20;79433;1298;3021128;-63
2023/01/30 09:32:59;;;;;;;9.20;4.20;;;;;;;1.43;48.77;99163.92;79455;1295;3013246;-62
2023/01/30 09:35:27;;;;;;;8.10;3.70;;;;;;;1.20;48.87;99154.88;78183;1298;3053245;-60
2023/01/30 09:37:54;;;;;;;10.50;4.60;;;;;;;1.43;49.02;99152.20;79415;1298;3013193;-63
2023/01/30 09:40:27;;;;;;;8.90;5.10;;;;;;;1.51;48.57;99147.14;79994;1298;3011342;-62
2023/01/30 09:43:21;;;;;;;13.10;6.10;;;;;;;1.60;48.53;99141.84;78386;1295;3068703;-61
2023/01/30 09:46:08;;;;;;;12.00;4.90;;;;;;;1.71;48.54;99133.07;78229;1301;3050701;-64
2023/01/30 09:49:09;;;;;;;12.30;5.00;;;;;;;1.76;48.07;99130.84;78170;1298;3057072;-63
2023/01/30 09:51:56;;;;;;;13.70;5.00;;;;;;;1.82;47.56;99124.10;77933;1300;3050758;-63
2023/01/30 09:54:27;;;;;;;12.50;5.20;;;;;;;1.83;47.59;99121.66;78398;1294;3053362;-62
2023/01/30 09:57:00;;;;;;;11.20;4.50;;;;;;;1.72;47.76;99122.52;79424;1299;3012892;-63
2023/01/30 09:59:31;;;;;;;8.70;4.90;;;;;;;1.70;47.70;99117.73;78447;1298;3053840;-61
2023/01/30 10:02:19;;;;;;;9.90;4.40;;;;;;;1.86;47.80;99107.41;79445;1301;3011591;-64
2023/01/30 10:04:48;;;;;;;11.10;4.50;;;;;;;1.91;47.38;99106.90;78176;1296;3071163;-62
2023/01/30 10:07:21;;;;;;;10.00;4.30;;;;;;;2.07;47.30;99100.72;79279;1299;3013254;-62
2023/01/30 10:10:11;;;;;;;10.20;4.20;;;;;;;1.97;46.60;99092.92;78219;1295;3050210;-61
2023/01/30 10:12:53;;;;;;;9.70;4.20;;;;;;;2.20;46.90;99083.35;78142;1298;3054774;-62
2023/01/30 10:15:33;;;;;;;9.50;4.90;;;;;;;2.34;46.58;99081.70;78389;1299;3049899;-61
2023/01/30 10:18:28;;;;;;;9.60;4.80;;;;;;;2.26;46.69;99081.63;78044;1302;3052658;-62
2023/01/30 10:21:10;;;;;;;8.00;4.30;;;;;;;2.23;46.34;99074.30;78044;1298;3052102;-62
2023/01/30 10:23:46;;;;;;;15.40;5.40;;;;;;;2.32;46.35;99074.84;78095;1299;3068933;-61
2023/01/30 10:26:15;;;;;;;8.70;4.70;;;;;;;2.16;46.62;99071.76;78167;1298;3050040;-63
2023/01/30 10:28:46;;;;;;;9.10;4.60;;;;;;;2.19;46.23;99068.86;79325;1296;3012819;-61
2023/01/30 10:31:15;;;;;;;9.70;4.40;;;;;;;2.16;46.14;99066.55;78177;1298;3053978;-61
2023/01/30 10:33:54;;;;;;;9.10;4.60;;;;;;;2.21;46.65;99063.62;79450;1298;3013756;-60
2023/01/30 10:36:26;;;;;;;8.30;4.00;;;;;;;2.37;45.84;99057.95;78122;1298;3052662;-62
2023/01/30 10:38:52;;;;;;;7.10;4.10;;;;;;;2.36;46.12;99051.55;79409;1298;3011488;-61
2023/01/30 10:41:33;;;;;;;11.70;4.80;;;;;;;2.42;45.41;99048.41;77896;1296;3027302;-59
2023/01/30 10:44:11;;;;;;;9.80;4.40;;;;;;;2.54;45.87;99042.84;78169;1297;3057180;-61
2023/01/30 10:47:03;;;;;;;10.00;4.90;;;;;;;2.65;46.00;99035.35;78002;1301;3049594;-62
2023/01/30 10:49:59;;;;;;;13.90;5.60;;;;;;;2.67;45.66;99028.01;78128;1298;3052924;-59
2023/01/30 10:52:48;;;;;;;12.80;5.00;;;;;;;2.93;45.61;99026.75;78186;1298;3051692;-61
2023/01/30 10:55:28;;;;;;;9.70;4.20;;;;;;;2.77;45.04;99021.09;78136;1298;3053682;-62
2023/01/30 10:58:26;;;;;;;11.60;5.30;;;;;;;2.59;45.55;99018.45;78337;1308;3051839;-62
2023/01/30 11:01:17;;;;;;;12.00;5.10;;;;;;;2.69;45.17;99015.51;78087;1308;3069211;-61
2023/01/30 11:03:49;;;;;;;8.80;4.50;;;;;;;2.75;44.67;99010.44;78246;1299;3050948;-61
2023/01/30 11:06:22;;;;;;;10.00;4.40;;;;;;;2.70;44.83;99010.80;78728;1300;3013051;-59
2023/01/30 11:08:50;;;;;;;7.10;4.00;;;;;;;2.92;45.31;99014.16;79651;1302;3013756;-61
2023/01/30 11:11:21;;;;;;;7.90;4.10;;;;;;;3.06;44.18;99007.08;79389;1296;3012855;-62
2023/01/30 11:13:50;;;;;;;8.30;4.10;;;;;;;3.06;44.23;99006.01;78278;1295;3050900;-62
2023/01/30 11:16:17;;;;;;;8.40;4.30;;;;;;;2.91;44.39;99002.27;79553;1298;3012670;-62
2023/01/30 11:18:48;;;;;;;8.60;4.50;;;;;;;2.79;44.90;98998.70;79461;1309;3011777;-61
2023/01/30 11:21:21;;;;;;;10.70;4.90;;;;;;;2.79;45.24;98993.17;78019;1301;3049648;-61
2023/01/30 11:23:49;;;;;;;10.90;5.60;;;;;;;2.96;44.98;98986.49;79384;1298;3011520;-61
2023/01/30 11:26:27;;;;;;;10.60;5.30;;;;;;;2.80;44.80;98988.99;78182;1298;3049844;-62
2023/01/30 11:28:55;;;;;;;12.00;5.40;;;;;;;2.92;44.82;98983.87;78292;1295;3053612;-62
2023/01/30 11:31:27;;;;;;;10.00;5.80;;;;;;;3.02;44.87;98977.30;79741;1300;3013027;-62
2023/01/30 11:34:04;;;;;;;11.50;4.70;;;;;;;3.22;44.40;98973.76;78335;1301;3051675;-62
2023/01/30 11:36:34;;;;;;;11.90;5.20;;;;;;;3.24;44.10;98967.98;78192;1306;3069457;-60
2023/01/30 11:39:03;;;;;;;10.90;5.10;;;;;;;3.27;44.09;98966.48;79637;1296;3013694;-61
2023/01/30 11:41:32;;;;;;;9.90;4.10;;;;;;;3.33;44.13;98962.61;78835;1295;3011495;-62
2023/01/30 11:44:00;;;;;;;7.20;3.90;;;;;;;3.20;44.01;98960.19;79466;1296;3018958;-60
2023/01/30 11:46:30;;;;;;;13.30;5.30;;;;;;;3.19;44.25;98952.94;79339;1298;3013604;-62
2023/01/30 11:49:10;;;;;;;11.80;5.00;;;;;;;3.11;44.56;98956.52;78119;1298;3051447;-63
2023/01/30 11:51:42;;;;;;;12.00;5.60;;;;;;;3.07;44.63;98953.88;78144;1301;3052516;-61
2023/01/30 11:54:14;;;;;;;10.70;5.20;;;;;;;2.77;45.21;98954.00;79446;1295;3013432;-62
2023/01/30 11:56:51;;;;;;;9.60;5.20;;;;;;;3.04;45.10;98953.31;78190;1298;3051900;-62
2023/01/30 11:59:38;;;;;;;12.90;5.20;;;;;;;3.02;44.83;98953.56;78215;1298;3057202;-62
2023/01/30 12:02:15;;;;;;;14.80;5.50;;;;;;;2.68;45.43;98948.60;78205;1298;3049611;-61
2023/01/30 12:04:44;;;;;;;14.80;6.50;;;;;;;2.46;45.73;98950.44;78226;1299;3052611;-61
2023/01/30 12:07:22;;;;;;;12.20;5.50;;;;;;;2.63;45.55;98946.03;79218;1307;3015821;-62
2023/01/30 12:09:55;;;;;;;16.70;6.50;;;;;;;2.94;44.89;98939.52;78185;1298;3051828;-63
2023/01/30 12:12:32;;;;;;;13.90;6.30;;;;;;;2.89;44.86;98938.67;79556;1298;3013642;-59
2023/01/30 12:15:15;;;;;;;13.90;7.00;;;;;;;2.94;45.03;98938.49;78312;1295;3057475;-63
2023/01/30 12:17:46;;;;;;;25.80;8.30;;;;;;;2.69;45.57;98935.95;78087;1298;3049981;-61
2023/01/30 12:20:39;;;;;;;15.50;7.60;;;;;;;2.65;46.11;98940.75;79433;1298;3012990;-60
2023/01/30 12:23:10;;;;;;;19.50;7.30;;;;;;;2.79;45.55;98932.30;78262;1299;3050389;-61
2023/01/30 12:25:50;;;;;;;16.80;7.30;;;;;;;2.77;45.77;98931.15;79225;1296;3013366;-59
2023/01/30 12:28:24;;;;;;;13.90;7.50;;;;;;;2.90;45.92;98932.90;78129;1301;3052765;-62
2023/01/30 12:30:55;;;;;;;17.60;6.80;;;;;;;2.73;46.30;98933.89;79375;1298;3013075;-63
2023/01/30 12:33:27;;;;;;;13.10;6.80;;;;;;;2.83;46.39;98926.10;78041;1299;3052244;-62
2023/01/30 12:36:08;;;;;;;23.00;8.40;;;;;;;3.04;45.78;98922.71;79475;1298;3011928;-64
2023/01/30 12:38:56;;;;;;;20.50;8.60;;;;;;;2.90;45.99;98922.02;78108;1298;3049338;-61
2023/01/30 12:41:33;;;;;;;20.50;8.70;;;;;;;2.79;46.22;98916.37;78082;1298;3053369;-62
2023/01/30 12:44:10;;;;;;;20.40;9.30;;;;;;;2.75;46.57;98916.56;78232;1298;3050221;-62
2023/01/30 12:46:51;;;;;;;18.10;8.50;;;;;;;2.76;46.75;98919.27;78189;1297;3052220;-60
2023/01/30 12:49:47;;;;;;;15.60;8.30;;;;;;;2.81;46.61;98922.18;78208;1299;3054425;-61
2023/01/30 12:52:47;;;;;;;12.50;7.40;;;;;;;2.85;47.19;98913.58;78247;1298;3069449;-62
2023/01/30 12:55:37;;;;;;;16.50;8.40;;;;;;;2.76;47.02;98909.92;78230;1298;3052215;-60
2023/01/30 12:58:28;;;;;;;16.00;7.60;;;;;;;2.73;47.28;98909.52;78237;1298;3056656;-63
2023/01/30 13:01:21;;;;;;;25.30;10.00;;;;;;;2.76;47.36;98902.14;78156;1295;3049287;-63
2023/01/30 13:04:01;;;;;;;23.50;8.80;;;;;;;2.75;47.39;98899.57;78269;1298;3054482;-62
2023/01/30 13:06:56;;;;;;;12.80;6.00;;;;;;;2.62;47.85;98903.48;78193;1298;3050648;-62
2023/01/30 13:09:53;;;;;;;15.80;7.20;;;;;;;2.55;48.01;98893.76;78209;1297;3052658;-60
2023/01/30 13:12:30;;;;;;;14.00;7.70;;;;;;;2.50;48.31;98896.17;78228;1299;3053508;-61
2023/01/30 13:15:17;;;;;;;14.20;6.30;;;;;;;2.36;48.69;98889.41;78148;1298;3069388;-62
2023/01/30 13:18:19;;;;;;;12.10;6.00;;;;;;;2.44;48.93;98881.02;78277;1298;3051689;-61
2023/01/30 18:32:13;;;;;;;19.10;8.50;;;;;;;-2.06;71.95;98804.58;80691;1299;3013314;-60
2023/01/30 18:34:40;;;;;;;20.10;9.40;;;;;;;-1.92;71.86;98808.79;79236;1298;3013137;-61
2023/01/30 18:37:07;;;;;;;22.10;10.30;;;;;;;-1.81;71.58;98805.81;79209;1299;3011958;-61
2023/01/30 18:39:37;;;;;;;21.40;9.90;;;;;;;-1.85;71.46;98800.73;78006;1302;3052239;-60
2023/01/30 18:42:04;;;;;;;21.10;8.80;;;;;;;-1.69;71.05;98800.59;79362;1297;3013883;-61
2023/01/30 18:44:30;;;;;;;21.90;9.60;;;;;;;-1.62;71.41;98795.27;77987;1300;3015327;-61
2023/01/30 18:46:59;;;;;;;19.30;9.50;;;;;;;-1.61;71.38;98796.27;78212;1297;3050195;-60
2023/01/30 18:49:25;;;;;;;21.10;10.50;;;;;;;-1.53;71.03;98790.10;79489;1296;3020452;-60
2023/01/30 18:51:52;;;;;;;18.90;8.80;;;;;;;-1.56;70.93;98785.87;79404;1298;3013130;-62
2023/01/30 18:54:20;;;;;;;19.10;8.90;;;;;;;-1.46;70.98;98782.21;78211;1298;3026096;-62
2023/01/30 18:56:47;;;;;;;19.90;8.90;;;;;;;-1.35;70.47;98777.49;79498;1295;3018390;-61
2023/01/30 18:59:14;;;;;;;17.90;9.00;;;;;;;-1.39;70.60;98783.58;79438;1298;3012020;-62
2023/01/30 19:01:42;;;;;;;19.60;10.10;;;;;;;-1.32;70.61;98778.10;78242;1297;3028439;-61
2023/01/30 19:04:09;;;;;;;21.40;9.40;;;;;;;-1.33;70.89;98775.73;79578;1298;3013083;-61
2023/01/30 19:06:37;;;;;;;19.30;9.00;;;;;;;-1.37;70.87;98777.54;79511;1298;3013029;-61
2023/01/30 19:09:05;;;;;;;20.20;8.60;;;;;;;-1.30;70.34;98773.92;78251;1298;3051205;-62
2023/01/30 19:14:20;;;;;;;16.30;7.80;;;;;;;-1.30;71.18;98765.16;78188;1298;3051246;-63
2023/01/30 19:16:50;;;;;;;14.70;7.40;;;;;;;-1.17;70.42;98764.17;79533;1296;3012372;-62
2023/01/30 19:19:19;;;;;;;15.50;6.90;;;;;;;-1.16;70.12;98760.55;79005;1298;3013476;-62
2023/01/30 19:21:46;;;;;;;20.20;7.90;;;;;;;-1.40;70.90;98759.91;79445;1296;3020725;-60
2023/01/30 19:24:14;;;;;;;16.60;7.60;;;;;;;-1.33;71.08;98761.13;79414;1297;3011884;-60
2023/01/30 19:26:43;;;;;;;21.20;8.50;;;;;;;-1.30;71.28;98759.33;78201;1298;3051516;-59
2023/01/30 19:29:11;;;;;;;15.00;8.30;;;;;;;-1.25;70.97;98756.63;79526;1295;3012846;-64
2023/01/30 19:31:38;;;;;;;14.80;7.00;;;;;;;-1.19;71.02;98760.63;79475;1294;3011834;-62
2023/01/30 19:34:06;;;;;;;16.50;7.10;;;;;;;-1.13;70.69;98762.71;78291;1295;3049768;-63
2023/01/30 19:36:34;;;;;;;12.80;7.50;;;;;;;-1.19;71.05;98755.63;79439;1296;3014807;-61
2023/01/30 19:39:02;;;;;;;16.60;8.20;;;;;;;-1.18;70.97;98757.33;79475;1296;3012785;-63
2023/01/30 19:41:34;;;;;;;16.80;7.80;;;;;;;-1.27;71.00;98757.71;78256;1298;3053340;-61
2023/01/30 19:44:03;;;;;;;18.20;8.30;;;;;;;-1.30;71.50;98760.52;79501;1298;3013044;-63
2023/01/30 19:46:31;;;;;;;14.80;7.00;;;;;;;-1.29;71.08;98761.70;78309;1296;3050688;-62
2023/01/30 19:48:58;;;;;;;15.70;7.00;;;;;;;-1.36;70.55;98763.41;79311;1296;3013504;-63
2023/01/30 19:51:27;;;;;;;14.90;7.30;;;;;;;-1.27;69.91;98755.33;79310;1298;3011713;-63
2023/01/30 19:54:00;;;;;;;15.90;6.70;;;;;;;-1.40;70.24;98761.27;78299;1295;3050471;-62
2023/01/30 19:56:27;;;;;;;13.90;5.50;;;;;;;-1.46;70.27;98759.02;79352;1299;3011635;-64
2023/01/30 19:58:56;;;;;;;9.90;5.10;;;;;;;-1.46;69.58;98761.08;78257;1301;3051376;-62
2023/01/30 20:01:24;;;;;;;11.10;6.10;;;;;;;-1.32;69.01;98762.46;79564;1295;3013704;-62
2023/01/30 20:03:50;;;;;;;11.50;5.20;;;;;;;-1.31;68.89;98754.19;79759;1295;3011429;-62
2023/01/30 20:06:23;;;;;;;13.00;6.00;;;;;;;-1.30;68.70;98754.17;78038;1298;3049201;-63
2023/01/30 20:08:57;;;;;;;5.30;3.60;;;;;;;-1.47;68.78;98752.84;79452;1298;3011627;-62
2023/01/30 20:11:25;;;;;;;10.30;4.70;;;;;;;-1.34;68.36;98753.25;78085;1298;3049936;-60
2023/01/30 20:13:52;;;;;;;9.40;5.10;;;;;;;-1.36;68.51;98758.25;79431;1300;3021340;-61
2023/01/30 20:16:26;;;;;;;10.10;4.00;;;;;;;-1.42;68.90;98762.18;78221;1296;3069249;-63
2023/01/30 20:19:00;;;;;;;9.30;4.60;;;;;;;-1.20;68.02;98758.58;79403;1295;3013532;-62
2023/01/30 20:21:29;;;;;;;8.80;4.40;;;;;;;-1.20;68.31;98750.33;78083;1295;3057547;-61
2023/01/30 20:24:00;;;;;;;16.20;6.50;;;;;;;-1.18;68.41;98753.89;79387;1296;3011516;-61
2023/01/30 20:26:29;;;;;;;23.40;6.60;;;;;;;-1.21;68.76;98759.98;78298;1296;3051534;-61
2023/01/30 20:28:56;;;;;;;24.50;7.20;;;;;;;-1.31;69.00;98764.33;79502;1295;3012880;-63
2023/01/30 20:31:28;;;;;;;23.40;7.20;;;;;;;-1.19;68.87;98765.08;78212;1298;3052469;-61
2023/01/30 20:33:56;;;;;;;24.00;7.60;;;;;;;-1.11;69.16;98758.17;79496;1298;3013232;-62
2023/01/30 20:36:24;;;;;;;25.40;6.80;;;;;;;-1.02;68.73;98763.98;79410;1295;3013225;-60
2023/01/30 20:38:54;;;;;;;13.80;5.30;;;;;;;-1.01;68.19;98759.33;78359;1295;3056322;-63
2023/01/30 20:41:23;;;;;;;12.30;5.10;;;;;;;-1.30;68.16;98767.05;79408;1298;3012953;-60
2023/01/30 20:43:51;;;;;;;17.70;6.00;;;;;;;-1.19;67.90;98764.41;79503;1295;3013231;-64
2023/01/30 20:46:41;;;;;;;8.50;4.10;;;;;;;-1.19;67.67;98767.67;78212;1298;3051741;-61